Time;durP1;ratioP1;P1;durP2;ratioP2;P2;SDS_P1;SDS_P2;PMS_P1;PMS_P2;Temp;Humidity;BMP_temperature;BMP_pressure;BME280_temperature;BME280_humidity;BME280_pressure;Samples;Min_cycle;Max_cycle;Signal;HPM_P1;HPM_P2
2023/06/16 00:00:11;;;;;;;23.92;18.10;;;;;;;22.90;55.87;100916.59;4963167;28;20046;-83
2023/06/16 00:02:45;;;;;;;23.52;18.08;;;;;;;23.06;55.99;100942.44;4952097;28;20283;-82
2023/06/16 00:05:12;;;;;;;24.75;17.10;;;;;;;22.70;56.00;100885.00;4960820;28;20050;-83
2023/06/16 00:07:52;;;;;;;22.48;16.35;;;;;;;22.46;56.26;100866.69;4948356;28;20061;-82
2023/06/16 00:10:21;;;;;;;23.63;17.40;;;;;;;22.99;56.22;100947.88;4963213;28;20418;-83
2023/06/16 00:12:57;;;;;;;23.25;16.40;;;;;;;22.07;56.48;100798.00;4953940;28;20110;-83
2023/06/16 00:15:26;;;;;;;24.13;16.60;;;;;;;22.65;56.22;100884.78;4942541;28;20128;-82
2023/06/16 00:17:56;;;;;;;21.73;16.30;;;;;;;22.60;55.65;100884.59;4962289;28;20080;-83
2023/06/16 00:20:26;;;;;;;26.05;16.23;;;;;;;22.37;55.59;100842.53;4971376;28;20137;-83
2023/06/16 00:22:54;;;;;;;19.40;16.08;;;;;;;23.03;55.49;100959.94;4963397;28;20473;-83
2023/06/16 00:25:21;;;;;;;20.48;16.10;;;;;;;22.01;55.86;100804.22;4965131;28;20450;-84
2023/06/16 00:27:51;;;;;;;22.15;16.08;;;;;;;22.72;56.08;100926.22;4952484;28;20051;-83
2023/06/16 00:30:21;;;;;;;23.52;17.05;;;;;;;22.94;55.98;100961.19;4949457;28;20050;-83
2023/06/16 00:32:51;;;;;;;19.60;16.10;;;;;;;22.87;56.32;100968.47;4951118;28;20058;-84
2023/06/16 00:35:20;;;;;;;23.83;15.27;;;;;;;22.89;56.01;100960.94;4947201;28;20054;-83
2023/06/16 00:37:51;;;;;;;18.98;14.75;;;;;;;22.93;56.03;100964.91;4946368;28;20521;-84
2023/06/16 00:40:20;;;;;;;23.02;15.32;;;;;;;22.83;55.22;100927.44;4940286;28;20057;-83
2023/06/16 00:42:50;;;;;;;20.35;14.45;;;;;;;23.17;54.83;100967.00;4929784;28;20078;-83
2023/06/16 00:45:21;;;;;;;17.17;14.27;;;;;;;21.96;54.15;100746.19;4948277;28;20050;-83
2023/06/16 00:47:51;;;;;;;22.40;15.15;;;;;;;22.77;54.50;100901.22;4957184;28;20309;-83
2023/06/16 00:50:19;;;;;;;18.77;15.20;;;;;;;22.19;55.21;100824.22;4953278;28;20493;-84
2023/06/16 00:52:47;;;;;;;19.80;13.88;;;;;;;21.69;55.37;100755.34;4950051;28;20072;-83
2023/06/16 00:55:21;;;;;;;19.08;14.32;;;;;;;22.12;55.07;100828.78;4941211;28;20585;-83
2023/06/16 00:57:52;;;;;;;;;;;;;;;22.58;55.62;100928.06;4954289;28;20158;-82
2023/06/16 01:00:20;;;;;;;20.67;14.65;;;;;;;22.27;55.87;100896.22;4968164;28;19921;-83
2023/06/16 01:02:49;;;;;;;18.85;14.63;;;;;;;22.69;55.84;100969.91;4964344;28;20060;-83
2023/06/16 01:05:21;;;;;;;16.90;14.40;;;;;;;22.39;56.10;100910.78;4941934;28;20133;-83
2023/06/16 01:07:55;;;;;;;20.35;15.73;;;;;;;22.85;55.71;100989.50;4939154;28;21926;-82
2023/06/16 01:10:35;;;;;;;19.55;14.20;;;;;;;22.85;55.77;100989.50;4954160;28;20055;-83
2023/06/16 01:13:21;;;;;;;18.75;14.30;;;;;;;22.37;56.21;100923.66;4941440;28;20062;-83
2023/06/16 01:15:49;;;;;;;21.85;14.98;;;;;;;22.24;56.77;100912.03;4938996;28;20070;-83
2023/06/16 01:18:22;;;;;;;20.58;13.73;;;;;;;22.61;56.23;100967.41;4931461;28;20173;-83
2023/06/16 01:20:58;;;;;;;23.08;14.55;;;;;;;22.75;56.84;100996.16;4933056;28;20051;-83
2023/06/16 01:23:50;;;;;;;23.83;15.15;;;;;;;21.78;57.12;100845.97;4936013;28;20054;-83
2023/06/16 01:26:17;;;;;;;;;;;;;;;22.68;57.68;101000.72;4948767;28;20058;-83
2023/06/16 01:28:47;;;;;;;25.92;15.82;;;;;;;21.98;57.44;100890.09;4954888;28;20272;-81
2023/06/16 01:31:21;;;;;;;25.60;17.00;;;;;;;21.60;57.75;100827.63;4944324;28;20382;-83
2023/06/16 01:33:56;;;;;;;21.65;17.02;;;;;;;21.20;57.73;100778.88;4939205;28;20043;-82
2023/06/16 01:36:30;;;;;;;22.00;16.65;;;;;;;22.45;58.14;100994.84;4952157;28;20129;-83
2023/06/16 01:39:01;;;;;;;21.55;16.00;;;;;;;22.34;58.22;100967.38;4962987;28;20050;-83
2023/06/16 01:41:29;;;;;;;22.58;16.30;;;;;;;22.59;58.24;101004.66;4935537;28;20058;-83
2023/06/16 01:43:57;;;;;;;22.67;15.60;;;;;;;22.33;58.36;100964.84;4952583;28;20137;-83
2023/06/16 01:46:31;;;;;;;24.65;15.43;;;;;;;22.05;58.10;100932.53;4944201;28;20046;-82
2023/06/16 01:48:58;;;;;;;23.80;15.38;;;;;;;21.73;58.19;100932.22;4941060;28;20101;-82
2023/06/16 01:51:27;;;;;;;30.30;15.85;;;;;;;22.42;57.57;101006.91;4957612;28;20117;-82
2023/06/16 01:53:56;;;;;;;21.80;14.85;;;;;;;22.40;58.05;101071.19;4953656;28;20129;-82
2023/06/16 01:56:25;;;;;;;24.25;14.77;;;;;;;22.26;58.15;101043.28;4941629;28;20104;-83
2023/06/16 01:58:55;;;;;;;17.10;14.35;;;;;;;22.18;58.86;101065.03;4957231;28;20268;-84
2023/06/16 02:01:56;;;;;;;22.98;14.10;;;;;;;21.94;59.46;101048.31;4955705;28;20237;-83
2023/06/16 02:04:28;;;;;;;19.88;14.15;;;;;;;22.20;58.54;101057.59;4955725;28;20046;-83
2023/06/16 02:07:02;;;;;;;18.70;14.25;;;;;;;21.92;58.83;101017.97;4928689;28;20046;-83
2023/06/16 02:09:33;;;;;;;20.48;14.85;;;;;;;22.00;58.63;101045.84;4936587;28;20073;-83
2023/06/16 02:11:59;;;;;;;19.90;15.43;;;;;;;21.87;59.27;101036.66;4932976;28;20656;-83
2023/06/16 02:14:27;;;;;;;20.10;14.60;;;;;;;21.64;58.89;100987.47;4926216;28;20051;-83
2023/06/16 02:17:06;;;;;;;19.73;14.30;;;;;;;21.71;59.85;101027.00;4922378;28;20702;-83
2023/06/16 02:19:34;;;;;;;18.10;14.38;;;;;;;21.77;59.87;101041.56;4905091;28;20061;-83
2023/06/16 02:22:02;;;;;;;21.15;13.95;;;;;;;21.57;59.58;101008.19;4925890;28;20794;-84
2023/06/16 02:24:34;;;;;;;23.48;15.18;;;;;;;21.44;59.95;100993.59;4901489;28;20751;-82
2023/06/16 02:27:04;;;;;;;19.90;15.10;;;;;;;21.84;59.25;101034.31;4916947;28;20161;-84
2023/06/16 02:29:31;;;;;;;26.15;15.45;;;;;;;21.60;58.77;100976.22;4917241;28;20486;-82
2023/06/16 02:32:02;;;;;;;22.77;16.23;;;;;;;21.92;58.61;101031.47;4939041;28;20453;-82
2023/06/16 02:34:34;;;;;;;19.20;15.55;;;;;;;21.70;58.72;100992.06;4916309;28;20156;-82
2023/06/16 02:37:01;;;;;;;22.13;14.45;;;;;;;21.85;59.32;101027.91;4934663;28;20573;-83
2023/06/16 02:39:40;;;;;;;28.90;17.80;;;;;;;21.61;59.23;100987.88;4924575;28;20054;-83
2023/06/16 02:42:09;;;;;;;21.92;16.10;;;;;;;21.87;59.14;101019.56;4941754;28;20221;-83
2023/06/16 02:44:36;;;;;;;22.33;15.43;;;;;;;21.72;59.11;100990.00;4956381;28;20418;-83
2023/06/16 02:47:03;;;;;;;21.42;16.10;;;;;;;21.87;59.08;101012.31;4957878;28;20046;-83
2023/06/16 02:49:31;;;;;;;24.00;16.95;;;;;;;22.01;58.53;101009.66;4965533;28;20061;-82
2023/06/16 02:52:01;;;;;;;22.48;16.67;;;;;;;21.59;58.27;100920.53;4950422;28;20760;-83
2023/06/16 02:54:28;;;;;;;23.95;16.63;;;;;;;21.98;58.05;100978.47;4940550;28;20056;-83
2023/06/16 02:56:55;;;;;;;23.60;16.65;;;;;;;21.05;58.00;100815.97;4960120;28;20482;-82
2023/06/16 02:59:24;;;;;;;27.42;16.17;;;;;;;22.08;58.22;100957.28;4944859;28;20445;-82
2023/06/16 03:01:51;;;;;;;18.77;15.73;;;;;;;21.91;58.01;100918.97;4931798;28;20486;-82
2023/06/16 03:04:18;;;;;;;20.73;15.60;;;;;;;21.86;57.57;100905.25;4950021;28;20042;-82
2023/06/16 03:06:49;;;;;;;31.98;17.33;;;;;;;22.34;57.24;100943.03;4959328;28;20137;-82
2023/06/16 03:09:16;;;;;;;21.30;16.13;;;;;;;21.99;59.43;100893.63;4960317;28;20054;-82
2023/06/16 03:11:47;;;;;;;21.65;15.70;;;;;;;21.90;60.37;100895.69;4931678;28;20054;-82
2023/06/16 03:14:14;;;;;;;21.88;16.27;;;;;;;21.52;62.04;100854.84;4952845;28;20097;-81
2023/06/16 03:16:50;;;;;;;21.35;16.17;;;;;;;21.81;63.04;100907.72;4945215;28;20062;-80
2023/06/16 03:19:20;;;;;;;28.38;16.58;;;;;;;21.59;62.39;100882.69;4952270;28;20488;-83
2023/06/16 03:21:50;;;;;;;21.92;16.50;;;;;;;22.06;62.42;100964.75;4946248;28;20054;-82
2023/06/16 03:24:18;;;;;;;23.60;16.35;;;;;;;21.80;62.55;100938.50;4948037;28;20224;-82
2023/06/16 03:26:46;;;;;;;21.42;17.10;;;;;;;22.02;62.77;100987.84;4947412;28;20347;-83
2023/06/16 03:29:17;;;;;;;18.67;15.45;;;;;;;21.96;63.31;100984.06;4934747;28;20072;-82
2023/06/16 03:31:44;;;;;;;21.55;16.38;;;;;;;21.90;63.94;100976.78;4956341;28;20062;-82
2023/06/16 03:34:13;;;;;;;19.38;15.45;;;;;;;21.98;62.57;100964.94;4939053;28;20050;-81
2023/06/16 03:36:50;;;;;;;19.48;15.18;;;;;;;21.44;61.52;100863.13;4957846;28;20065;-83
2023/06/16 03:39:17;;;;;;;19.15;14.55;;;;;;;21.69;61.00;100898.53;4968098;28;20956;-83
2023/06/16 03:41:44;;;;;;;24.08;15.30;;;;;;;21.76;60.35;100910.19;4919001;28;20125;-83
2023/06/16 03:44:11;;;;;;;19.33;15.13;;;;;;;21.83;60.12;100911.06;4950040;28;20105;-84
2023/06/16 03:46:42;;;;;;;22.83;15.55;;;;;;;21.50;61.39;100884.75;4939610;28;20414;-83
2023/06/16 03:49:10;;;;;;;26.92;14.38;;;;;;;21.53;61.85;100905.97;4930952;28;20050;-84
2023/06/16 03:51:39;;;;;;;21.50;15.27;;;;;;;22.06;61.32;100997.19;4953058;28;20042;-83
2023/06/16 03:54:06;;;;;;;18.67;13.95;;;;;;;22.00;61.31;100994.50;4948064;28;20386;-84
2023/06/16 03:56:33;;;;;;;19.60;14.43;;;;;;;22.07;61.03;101003.47;4959735;28;20057;-83
2023/06/16 03:59:00;;;;;;;17.42;13.80;;;;;;;21.91;60.60;100977.59;4948788;28;20054;-83
2023/06/16 04:01:27;;;;;;;17.75;14.07;;;;;;;21.86;61.45;100980.91;4947957;28;20051;-84
2023/06/16 04:03:54;;;;;;;19.55;14.50;;;;;;;21.67;61.46;100951.94;4968169;28;20050;-83
2023/06/16 04:06:22;;;;;;;21.80;14.45;;;;;;;21.12;60.80;100860.88;4950377;28;20042;-83
2023/06/16 04:08:56;;;;;;;18.48;14.15;;;;;;;21.86;61.18;100986.31;4956620;28;20053;-84
2023/06/16 04:11:27;;;;;;;20.27;14.43;;;;;;;21.74;61.13;100977.94;4930866;28;20112;-83
2023/06/16 04:13:53;;;;;;;23.60;15.35;;;;;;;21.74;60.71;100988.75;4951577;28;20061;-83
2023/06/16 04:16:24;;;;;;;22.48;15.40;;;;;;;21.89;60.19;101012.94;4957311;28;20050;-83
2023/06/16 04:18:53;;;;;;;21.05;14.98;;;;;;;21.91;60.58;101016.28;4922043;28;21066;-83
2023/06/16 04:21:22;;;;;;;20.08;13.60;;;;;;;21.87;60.16;101006.91;4930673;28;20520;-83
2023/06/16 04:23:48;;;;;;;18.50;14.68;;;;;;;20.89;60.85;100871.09;4952814;28;20049;-83
2023/06/16 04:26:22;;;;;;;18.88;15.25;;;;;;;21.60;60.67;100992.41;4917846;28;20378;-84
2023/06/16 04:29:03;;;;;;;22.00;16.10;;;;;;;21.75;61.19;101022.03;4899673;28;20617;-83
2023/06/16 04:31:35;;;;;;;20.25;14.75;;;;;;;21.85;60.59;101022.50;4893787;28;20249;-83
2023/06/16 04:34:05;;;;;;;17.43;14.67;;;;;;;21.83;60.74;101027.25;4966098;28;20112;-83
2023/06/16 04:36:44;;;;;;;21.25;14.55;;;;;;;21.87;61.25;101038.50;4960412;28;20051;-83
2023/06/16 04:39:16;;;;;;;16.65;13.40;;;;;;;21.83;61.94;101040.78;4976041;28;20053;-83
2023/06/16 04:41:43;;;;;;;18.10;14.18;;;;;;;21.41;62.03;100988.59;4966146;28;20081;-83
2023/06/16 04:44:11;;;;;;;20.60;15.25;;;;;;;21.85;62.20;101054.09;4964770;28;20635;-83
2023/06/16 04:46:38;;;;;;;23.73;16.63;;;;;;;21.77;62.08;101047.81;4966392;28;20128;-83
2023/06/16 04:49:08;;;;;;;20.17;15.70;;;;;;;21.68;62.27;101029.28;4956236;28;20054;-83
2023/06/16 04:51:36;;;;;;;21.45;16.83;;;;;;;21.90;62.54;101062.44;4955331;28;20129;-83
2023/06/16 04:54:03;;;;;;;21.90;17.05;;;;;;;21.95;61.92;101071.59;4961222;28;20199;-82
2023/06/16 04:56:30;;;;;;;22.80;16.85;;;;;;;21.95;61.48;101036.47;4961091;28;20227;-82
2023/06/16 04:59:07;;;;;;;21.38;15.80;;;;;;;21.24;61.50;100916.97;4927245;28;20054;-83
2023/06/16 05:01:39;;;;;;;27.52;17.92;;;;;;;21.81;62.10;101005.00;4940424;28;20134;-82
2023/06/16 05:04:06;;;;;;;23.35;16.58;;;;;;;22.10;61.20;101052.53;4954689;28;20050;-82
2023/06/16 05:06:37;;;;;;;22.27;17.05;;;;;;;22.17;60.95;101058.81;4959543;28;20904;-83
2023/06/16 05:09:05;;;;;;;21.10;16.53;;;;;;;22.08;61.57;101040.25;4967453;28;20082;-82
2023/06/16 05:11:32;;;;;;;21.92;15.70;;;;;;;22.27;60.61;101053.06;4930411;28;20393;-82
2023/06/16 05:14:03;;;;;;;22.25;16.13;;;;;;;22.22;60.54;101023.09;4928983;28;20137;-83
2023/06/16 05:16:30;;;;;;;23.98;16.60;;;;;;;22.59;59.79;101062.31;4907957;28;20253;-83
2023/06/16 05:19:01;;;;;;;23.05;16.95;;;;;;;22.66;59.93;101059.63;4905262;28;20404;-82
2023/06/16 05:21:33;;;;;;;22.52;16.45;;;;;;;22.69;59.46;101055.66;4936720;28;20058;-83
2023/06/16 05:24:01;;;;;;;29.00;17.30;;;;;;;22.76;59.30;101053.81;4939765;28;20047;-84
2023/06/16 05:26:28;;;;;;;19.75;15.38;;;;;;;22.62;58.47;101012.34;4948117;28;20471;-83
2023/06/16 05:28:57;;;;;;;23.05;15.05;;;;;;;22.96;57.73;101056.53;4938532;28;20065;-83
2023/06/16 05:31:24;;;;;;;26.90;15.68;;;;;;;22.92;57.89;101060.72;4941362;28;20332;-83
2023/06/16 05:33:54;;;;;;;19.88;15.63;;;;;;;23.06;57.56;101066.97;4948766;28;20353;-83
2023/06/16 05:36:24;;;;;;;26.77;16.40;;;;;;;23.20;57.41;101065.94;4954075;28;20054;-83
2023/06/16 05:38:52;;;;;;;26.45;17.05;;;;;;;23.20;57.01;101041.56;4938862;28;20297;-83
2023/06/16 05:41:24;;;;;;;20.35;15.45;;;;;;;22.99;56.87;100999.31;4963261;28;20513;-82
2023/06/16 05:43:51;;;;;;;19.83;16.75;;;;;;;23.33;56.85;101073.25;4920628;28;20706;-82
2023/06/16 05:46:19;;;;;;;18.33;14.82;;;;;;;23.33;56.76;101070.53;4924810;28;20200;-82
2023/06/16 05:48:48;;;;;;;21.05;16.10;;;;;;;23.07;56.44;101020.75;4939938;28;20758;-83
2023/06/16 05:51:15;;;;;;;22.35;16.35;;;;;;;22.86;55.53;100983.84;4953477;28;20074;-82
2023/06/16 05:53:44;;;;;;;21.83;15.73;;;;;;;23.11;55.61;101023.84;4936482;28;20050;-83
2023/06/16 05:56:10;;;;;;;17.52;15.05;;;;;;;23.35;55.89;101072.00;4931164;28;20482;-83
2023/06/16 05:58:39;;;;;;;23.20;16.73;;;;;;;22.72;55.76;100953.28;4934525;28;20498;-84
2023/06/16 06:01:06;;;;;;;22.48;16.80;;;;;;;23.50;55.81;101063.66;4937328;28;20402;-82
2023/06/16 06:03:43;;;;;;;22.15;16.15;;;;;;;23.47;53.99;101042.38;4941634;28;20058;-83
2023/06/16 06:06:21;;;;;;;20.23;14.45;;;;;;;23.46;54.51;101057.81;4957611;28;20663;-83
2023/06/16 06:08:48;;;;;;;28.45;16.13;;;;;;;23.16;54.32;101000.53;4955552;28;20434;-83
2023/06/16 06:11:15;;;;;;;24.10;15.95;;;;;;;23.58;55.18;101068.84;4944796;28;20157;-83
2023/06/16 06:13:42;;;;;;;17.73;14.57;;;;;;;22.64;54.29;100912.88;4958401;28;20053;-83
2023/06/16 06:16:11;;;;;;;19.55;15.55;;;;;;;23.60;53.72;101068.63;4945118;28;20244;-83
2023/06/16 06:18:43;;;;;;;21.13;15.45;;;;;;;23.09;54.08;100983.47;4939209;28;20346;-82
2023/06/16 06:21:20;;;;;;;19.48;13.75;;;;;;;23.60;53.80;101057.78;4940482;28;20082;-81
2023/06/16 06:23:51;;;;;;;19.58;14.73;;;;;;;23.59;53.84;101056.13;4932800;28;20060;-82
2023/06/16 06:26:19;;;;;;;21.27;14.98;;;;;;;23.55;53.91;101041.34;4945234;28;20259;-81
2023/06/16 06:28:46;;;;;;;21.35;13.85;;;;;;;23.78;54.11;101065.28;4955913;28;20054;-81
2023/06/16 06:31:12;;;;;;;19.33;14.93;;;;;;;23.85;53.74;101074.22;4955850;28;20258;-83
2023/06/16 06:33:41;;;;;;;19.85;14.73;;;;;;;23.38;53.77;100990.31;4963390;28;20065;-83
2023/06/16 06:36:09;;;;;;;20.73;16.58;;;;;;;23.44;53.26;100984.03;4923126;28;20050;-83
2023/06/16 06:38:42;;;;;;;16.85;13.90;;;;;;;23.82;52.90;101039.41;4919803;28;20284;-82
2023/06/16 06:41:09;;;;;;;16.77;14.20;;;;;;;23.14;52.95;100931.41;4927444;28;20073;-83
2023/06/16 06:43:36;;;;;;;17.88;13.50;;;;;;;23.46;53.06;100972.97;4937731;28;20105;-83
2023/06/16 06:46:03;;;;;;;20.13;14.55;;;;;;;24.01;52.43;101062.94;4954993;28;20054;-84
2023/06/16 06:48:34;;;;;;;21.50;14.73;;;;;;;24.09;52.20;101078.13;4938596;28;20505;-83
2023/06/16 06:51:00;;;;;;;16.52;13.55;;;;;;;24.12;52.20;101066.84;4927401;28;20100;-84
2023/06/16 06:53:27;;;;;;;18.73;14.00;;;;;;;24.27;51.73;101089.13;4950292;28;20054;-83
2023/06/16 06:55:55;;;;;;;22.50;14.20;;;;;;;24.29;51.62;101080.75;4957655;28;20060;-83
2023/06/16 06:58:24;;;;;;;18.42;14.27;;;;;;;24.07;51.27;101043.06;4950955;28;20531;-82
2023/06/16 07:00:51;;;;;;;20.88;13.95;;;;;;;23.14;51.80;100897.00;4954207;28;20437;-83
2023/06/16 07:03:19;;;;;;;21.27;14.18;;;;;;;23.60;51.75;100971.06;4951639;28;20110;-83
2023/06/16 07:05:48;;;;;;;19.40;13.50;;;;;;;23.95;51.60;101023.09;4951428;28;20484;-83
2023/06/16 07:08:22;;;;;;;16.13;13.23;;;;;;;24.03;51.72;101049.13;4937956;28;20303;-82
2023/06/16 07:10:49;;;;;;;22.20;14.23;;;;;;;24.00;52.22;101053.09;4940881;28;20227;-82
2023/06/16 07:13:16;;;;;;;16.23;12.63;;;;;;;24.34;51.80;101080.94;4932647;28;20527;-83
2023/06/16 07:15:48;;;;;;;21.10;13.45;;;;;;;24.52;51.54;101078.38;4910261;28;20755;-83
2023/06/16 07:18:46;;;;;;;17.75;13.85;;;;;;;24.52;50.85;101072.94;4920456;28;20038;-84
2023/06/16 07:21:20;;;;;;;21.52;14.80;;;;;;;24.59;51.02;101072.91;4915263;28;20050;-82
2023/06/16 07:23:48;;;;;;;21.98;13.82;;;;;;;24.61;51.01;101086.25;4936838;28;20447;-83
2023/06/16 07:26:21;;;;;;;18.20;12.20;;;;;;;23.65;50.72;100928.72;4927867;28;20065;-83
2023/06/16 07:28:56;;;;;;;19.77;13.95;;;;;;;23.56;51.35;100911.03;4904859;28;20054;-83
2023/06/16 07:31:29;;;;;;;21.45;13.98;;;;;;;24.20;51.39;101004.22;4925916;28;20472;-85
2023/06/16 07:34:06;;;;;;;19.45;12.77;;;;;;;24.63;51.07;101067.88;4918999;28;20128;-82
2023/06/16 07:36:46;;;;;;;17.90;13.05;;;;;;;24.78;50.46;101076.53;4899963;28;20046;-83
2023/06/16 07:39:21;;;;;;;16.15;12.63;;;;;;;24.63;50.87;101054.28;4909787;28;20219;-84
2023/06/16 07:41:47;;;;;;;23.48;13.77;;;;;;;24.62;50.40;101045.34;4939357;28;20054;-83
2023/06/16 07:44:15;;;;;;;15.40;12.18;;;;;;;24.74;50.65;101059.03;4944888;28;20558;-82
2023/06/16 07:46:46;;;;;;;19.95;13.23;;;;;;;25.18;50.60;101098.03;4953004;28;20129;-85
2023/06/16 07:49:17;;;;;;;24.80;13.73;;;;;;;25.15;50.97;101093.00;4958361;28;20409;-83
2023/06/16 07:51:47;;;;;;;18.73;12.65;;;;;;;24.02;50.62;100915.44;4957738;28;20062;-82
2023/06/16 07:54:15;;;;;;;19.13;14.73;;;;;;;24.52;50.99;101005.09;4936479;28;20465;-84
2023/06/16 07:56:42;;;;;;;19.85;14.32;;;;;;;24.71;51.00;101033.16;4948312;28;20557;-82
2023/06/16 07:59:09;;;;;;;22.40;12.82;;;;;;;24.73;51.89;101031.06;4959999;28;20054;-82
2023/06/16 08:01:39;;;;;;;18.48;13.25;;;;;;;24.67;51.27;100999.34;4939256;28;20050;-83
2023/06/16 08:04:06;;;;;;;22.33;12.40;;;;;;;24.88;51.13;101010.88;4957817;28;20164;-82
2023/06/16 08:06:34;;;;;;;21.33;13.13;;;;;;;24.47;50.61;100928.94;4944953;28;20062;-83
2023/06/16 08:09:09;;;;;;;21.27;13.50;;;;;;;25.50;50.46;101087.09;4948093;28;20185;-82
2023/06/16 08:12:11;;;;;;;17.65;13.95;;;;;;;25.31;50.34;101043.56;4916826;28;20046;-82
2023/06/16 08:14:46;;;;;;;16.92;12.88;;;;;;;25.18;50.82;101027.38;4934671;28;20442;-81
2023/06/16 08:17:15;;;;;;;19.20;12.20;;;;;;;24.76;51.44;100948.34;4955571;28;20369;-84
2023/06/16 08:19:44;;;;;;;20.40;12.65;;;;;;;24.17;50.94;100838.34;4960514;28;20317;-84
2023/06/16 08:22:11;;;;;;;20.52;13.05;;;;;;;25.66;51.34;101077.53;4966385;28;20058;-82
2023/06/16 08:24:38;;;;;;;17.38;13.10;;;;;;;24.68;51.06;100922.28;4965409;28;20101;-83
2023/06/16 08:27:07;;;;;;;17.38;13.98;;;;;;;25.19;50.73;100977.41;4948740;28;20281;-83
2023/06/16 08:29:34;;;;;;;16.40;12.88;;;;;;;25.59;50.91;101044.97;4944242;28;20609;-81
2023/06/16 08:32:02;;;;;;;20.45;13.15;;;;;;;25.52;51.27;101033.34;4963539;28;20361;-81
2023/06/16 08:34:28;;;;;;;17.80;13.13;;;;;;;25.27;50.55;101020.63;4954652;28;20164;-82
2023/06/16 08:36:56;;;;;;;19.67;13.75;;;;;;;25.25;50.72;100994.72;4953719;28;20069;-84
2023/06/16 08:39:23;;;;;;;20.25;13.15;;;;;;;25.38;50.29;101010.88;4960001;28;20124;-84
2023/06/16 08:41:51;;;;;;;22.65;13.20;;;;;;;25.21;51.00;100983.47;4949865;28;20417;-84
2023/06/16 08:44:28;;;;;;;18.77;12.73;;;;;;;24.87;51.21;100939.47;4947237;28;20131;-82
2023/06/16 08:46:57;;;;;;;20.85;13.52;;;;;;;25.95;51.23;101081.44;4945038;28;20236;-83
2023/06/16 08:49:25;;;;;;;18.55;12.77;;;;;;;25.86;51.09;101059.13;4938614;28;20510;-83
2023/06/16 08:51:52;;;;;;;19.92;14.07;;;;;;;25.72;50.72;101033.13;4960908;28;20042;-84
2023/06/16 08:54:24;;;;;;;19.17;13.68;;;;;;;25.04;50.49;100922.59;4965629;28;20840;-83
2023/06/16 08:57:01;;;;;;;22.08;13.23;;;;;;;25.76;50.59;101032.44;4952794;28;20058;-81
2023/06/16 08:59:30;;;;;;;16.55;14.00;;;;;;;25.93;50.41;101072.66;4950324;28;20572;-82
2023/06/16 09:01:59;;;;;;;15.00;12.00;;;;;;;25.33;50.44;100969.97;4957560;28;20055;-82
2023/06/16 09:04:28;;;;;;;16.42;12.18;;;;;;;26.13;49.78;101048.75;4956880;28;20050;-83
2023/06/16 09:06:59;;;;;;;19.00;12.88;;;;;;;26.38;50.18;101064.13;4956856;28;20052;-84
2023/06/16 09:09:26;;;;;;;13.52;11.50;;;;;;;26.07;49.41;101000.72;4957873;28;20515;-84
2023/06/16 09:12:07;;;;;;;20.58;13.65;;;;;;;26.55;48.46;101051.56;4944444;28;20123;-84
2023/06/16 09:14:39;;;;;;;15.05;11.45;;;;;;;25.66;48.00;100879.91;4971057;28;20056;-83
2023/06/16 09:17:09;;;;;;;17.48;11.60;;;;;;;26.16;48.30;100991.16;4971505;28;20254;-83
2023/06/16 09:19:51;;;;;;;23.85;14.35;;;;;;;26.57;48.35;101033.09;4967987;28;20387;-83
2023/06/16 09:22:20;;;;;;;15.50;11.38;;;;;;;26.47;48.43;100991.97;4966940;28;20536;-82
2023/06/16 09:25:10;;;;;;;16.45;12.05;;;;;;;26.66;47.69;101005.56;4958615;28;20478;-83
2023/06/16 09:27:46;;;;;;;20.02;12.63;;;;;;;26.11;47.12;100878.66;4975466;28;20057;-83
2023/06/16 09:30:20;;;;;;;18.20;12.73;;;;;;;26.07;47.13;100889.19;4978712;28;20060;-83
2023/06/16 09:32:49;;;;;;;15.15;11.77;;;;;;;26.53;46.28;100963.00;4971093;28;20046;-83
2023/06/16 09:35:23;;;;;;;17.50;12.88;;;;;;;27.15;46.39;101064.25;4964610;28;20292;-84
2023/06/16 09:37:53;;;;;;;14.43;11.05;;;;;;;27.26;45.95;101051.75;4951126;28;20537;-82
2023/06/16 09:40:25;;;;;;;17.20;12.32;;;;;;;26.98;45.43;101003.34;4905190;28;20292;-85
2023/06/16 09:43:06;;;;;;;17.05;11.88;;;;;;;27.28;46.11;101055.91;4925928;28;20056;-83
2023/06/16 09:45:40;;;;;;;16.60;11.30;;;;;;;27.49;45.33;101037.28;4938078;28;20046;-83
2023/06/16 09:48:10;;;;;;;15.05;12.13;;;;;;;27.61;44.76;101046.28;4940491;28;20046;-84
2023/06/16 09:50:41;;;;;;;16.42;12.00;;;;;;;27.40;44.81;100990.47;4945468;28;20056;-84
2023/06/16 09:53:08;;;;;;;18.23;12.95;;;;;;;26.63;44.60;100868.81;4955629;28;20046;-84
2023/06/16 09:55:40;;;;;;;15.30;12.80;;;;;;;27.71;45.41;101051.13;4959613;28;20046;-81
2023/06/16 09:58:08;;;;;;;15.65;11.57;;;;;;;27.67;45.25;101044.47;4950408;28;20052;-83
2023/06/16 10:00:37;;;;;;;13.63;12.20;;;;;;;27.64;44.61;101015.78;4939052;28;20374;-84
2023/06/16 10:03:08;;;;;;;16.50;12.23;;;;;;;27.88;44.74;101048.53;4952396;28;20366;-83
2023/06/16 10:05:37;;;;;;;12.80;11.45;;;;;;;26.97;44.91;100890.84;4950981;28;20523;-84
2023/06/16 10:08:06;;;;;;;15.00;11.18;;;;;;;27.72;43.97;100987.34;4954439;28;20128;-84
2023/06/16 10:10:38;;;;;;;12.38;10.13;;;;;;;27.76;43.67;100988.50;4953169;28;20250;-84
2023/06/16 10:13:06;;;;;;;14.82;11.23;;;;;;;27.99;44.03;100959.50;4960099;28;20446;-83
2023/06/16 10:15:41;;;;;;;;;;;;;;;28.57;43.57;101031.31;4969703;28;20502;-84
2023/06/16 10:18:17;;;;;;;14.82;11.63;;;;;;;28.62;42.92;101036.88;4947637;28;20000;-85
2023/06/16 10:20:58;;;;;;;16.13;12.23;;;;;;;28.40;43.11;100982.09;4956881;28;20167;-84
2023/06/16 10:23:33;;;;;;;17.15;12.18;;;;;;;28.83;42.73;101003.34;4951010;28;20043;-84
2023/06/16 10:26:01;;;;;;;16.50;10.80;;;;;;;28.99;42.25;101004.44;4940302;28;20053;-83
2023/06/16 10:28:29;;;;;;;14.35;11.40;;;;;;;28.83;41.89;100958.81;4945447;28;20062;-85
2023/06/16 10:30:56;;;;;;;15.48;11.75;;;;;;;29.31;41.50;100992.91;4942914;28;20050;-84
2023/06/16 10:33:28;;;;;;;20.52;12.52;;;;;;;29.69;41.32;101029.59;4974288;28;20529;-84
2023/06/16 10:35:57;;;;;;;17.15;13.48;;;;;;;29.58;41.65;101029.38;4977647;28;20531;-85
2023/06/16 10:38:56;;;;;;;15.07;12.00;;;;;;;28.85;40.50;100897.38;4953709;28;20601;-85
2023/06/16 10:41:33;;;;;;;15.23;11.60;;;;;;;28.85;39.68;100869.25;4969697;28;20074;-84
2023/06/16 10:44:22;;;;;;;13.75;12.00;;;;;;;30.03;40.46;101016.59;4963866;28;20450;-83
2023/06/16 10:47:11;;;;;;;17.52;12.40;;;;;;;30.21;39.70;101018.16;4964996;28;20693;-84
2023/06/16 10:50:00;;;;;;;13.23;11.82;;;;;;;30.07;38.68;100967.63;4987136;28;20101;-84
2023/06/16 10:52:50;;;;;;;14.60;11.40;;;;;;;29.66;39.08;100901.47;4964137;28;20062;-84
2023/06/16 10:55:34;;;;;;;12.57;11.27;;;;;;;29.38;38.13;100824.03;4948937;28;20055;-84
2023/06/16 10:58:29;;;;;;;16.70;10.85;;;;;;;30.55;36.50;100999.59;4956223;28;20609;-83
2023/06/16 11:01:03;;;;;;;16.00;10.18;;;;;;;30.44;36.40;100987.75;4952890;28;20054;-83
2023/06/16 11:03:44;;;;;;;12.85;10.18;;;;;;;30.58;37.20;100979.09;4961979;28;20055;-84
2023/06/16 11:06:12;;;;;;;16.30;10.30;;;;;;;30.42;37.36;100959.78;4976215;28;20153;-84
2023/06/16 11:08:57;;;;;;;15.20;10.68;;;;;;;30.89;36.34;100991.16;4973215;28;20446;-83
2023/06/16 11:11:36;;;;;;;11.93;9.77;;;;;;;30.72;36.56;100932.91;4955427;28;20050;-84
2023/06/16 11:14:03;;;;;;;14.05;10.80;;;;;;;30.20;36.40;100811.16;4986050;28;20378;-83
2023/06/16 11:16:38;;;;;;;20.13;10.85;;;;;;;30.62;35.90;100849.53;4990954;28;20069;-82
2023/06/16 11:19:08;;;;;;;18.58;11.70;;;;;;;30.54;36.04;100851.97;4984127;28;20049;-84
2023/06/16 11:21:35;;;;;;;13.27;10.75;;;;;;;30.66;36.07;100910.13;4987300;28;20135;-81
2023/06/16 11:24:10;;;;;;;12.23;10.30;;;;;;;29.78;36.28;100793.56;4974313;28;20053;-83
2023/06/16 11:26:37;;;;;;;14.45;10.40;;;;;;;30.98;36.45;100972.31;4974711;28;20054;-84